Time;durP1;ratioP1;P1;durP2;ratioP2;P2;SDS_P1;SDS_P2;PMS_P1;PMS_P2;Temp;Humidity;BMP_temperature;BMP_pressure;BME280_temperature;BME280_humidity;BME280_pressure;Samples;Min_cycle;Max_cycle;Signal;HPM_P1;HPM_P2
2021/11/05 00:00:41;;;;;;;4.40;4.00;;;;;;;;;;5014605;28;20972;-62
2021/11/05 00:03:08;;;;;;;3.80;3.40;;;;;;;;;;5023740;28;20455;-62
2021/11/05 00:05:34;;;;;;;4.97;4.17;;;;;;;;;;5034974;28;20462;-62
2021/11/05 00:08:07;;;;;;;4.60;3.73;;;;;;;;;;5036088;28;20410;-61
2021/11/05 00:10:34;;;;;;;5.03;4.53;;;;;;;;;;5035563;28;20434;-62
2021/11/05 00:13:00;;;;;;;4.77;3.57;;;;;;;;;;5035112;28;20798;-60
2021/11/05 00:15:28;;;;;;;4.47;4.07;;;;;;;;;;5034959;28;20418;-61
2021/11/05 00:17:54;;;;;;;5.63;4.00;;;;;;;;;;5034906;28;20442;-62
2021/11/05 00:20:20;;;;;;;5.10;3.80;;;;;;;;;;5035133;28;20549;-61
2021/11/05 00:22:46;;;;;;;6.23;4.83;;;;;;;;;;5035214;28;20422;-60
2021/11/05 00:25:12;;;;;;;4.00;3.60;;;;;;;;;;5035171;28;20457;-64
2021/11/05 00:27:39;;;;;;;5.00;4.10;;;;;;;;;;5025198;28;20967;-61
2021/11/05 00:30:06;;;;;;;5.40;4.10;;;;;;;;;;5027576;28;20426;-61
2021/11/05 00:32:33;;;;;;;4.23;3.33;;;;;;;;;;5035039;28;20526;-61
2021/11/05 00:34:59;;;;;;;4.40;4.00;;;;;;;;;;5035083;28;20810;-61
2021/11/05 00:37:25;;;;;;;5.80;4.37;;;;;;;;;;5034909;28;20406;-62
2021/11/05 00:39:51;;;;;;;4.23;3.60;;;;;;;;;;5034634;28;20557;-62
2021/11/05 00:42:17;;;;;;;5.17;4.67;;;;;;;;;;5035023;28;20780;-61
2021/11/05 00:44:43;;;;;;;4.37;3.97;;;;;;;;;;5034733;28;20394;-62
2021/11/05 00:47:09;;;;;;;5.20;4.33;;;;;;;;;;5034887;28;20410;-60
2021/11/05 00:49:35;;;;;;;4.20;3.47;;;;;;;;;;5034541;28;20405;-62
2021/11/05 00:52:01;;;;;;;4.47;4.07;;;;;;;;;;5034652;28;20442;-62
2021/11/05 00:54:27;;;;;;;4.70;3.87;;;;;;;;;;5031187;28;20443;-60
2021/11/05 00:56:53;;;;;;;5.40;4.77;;;;;;;;;;5014982;28;20408;-59
2021/11/05 00:59:19;;;;;;;5.43;3.40;;;;;;;;;;5032793;28;20407;-63
2021/11/05 01:01:45;;;;;;;4.90;3.67;;;;;;;;;;5034136;28;20520;-62
2021/11/05 01:04:11;;;;;;;4.57;4.10;;;;;;;;;;5034566;28;20415;-59
2021/11/05 01:06:37;;;;;;;4.60;3.90;;;;;;;;;;5021793;28;20408;-63
2021/11/05 01:09:04;;;;;;;4.23;3.63;;;;;;;;;;5014652;28;20442;-62
2021/11/05 01:11:31;;;;;;;5.03;4.13;;;;;;;;;;5033141;28;20454;-62
2021/11/05 01:13:57;;;;;;;3.37;3.03;;;;;;;;;;5034359;28;20395;-62
2021/11/05 01:16:23;;;;;;;5.30;4.27;;;;;;;;;;5034112;28;20407;-62
2021/11/05 01:18:49;;;;;;;3.93;3.53;;;;;;;;;;5034002;28;20399;-62
2021/11/05 01:21:16;;;;;;;5.30;3.83;;;;;;;;;;5033901;28;20451;-61
2021/11/05 01:23:42;;;;;;;7.00;3.90;;;;;;;;;;5033777;28;20444;-61
2021/11/05 01:26:08;;;;;;;4.47;4.03;;;;;;;;;;5033812;28;20508;-64
2021/11/05 01:28:34;;;;;;;3.73;3.43;;;;;;;;;;5016343;28;20419;-62
2021/11/05 01:31:00;;;;;;;4.73;4.23;;;;;;;;;;5024567;28;20484;-62
2021/11/05 01:33:26;;;;;;;4.43;4.00;;;;;;;;;;5033487;28;20457;-62
2021/11/05 01:35:53;;;;;;;6.00;4.60;;;;;;;;;;5034063;28;20410;-62
2021/11/05 01:38:19;;;;;;;5.60;4.70;;;;;;;;;;5033009;28;20468;-62
2021/11/05 01:40:46;;;;;;;5.27;4.00;;;;;;;;;;5033621;28;20450;-60
2021/11/05 01:43:13;;;;;;;4.87;4.30;;;;;;;;;;5031840;28;20439;-62
2021/11/05 01:45:40;;;;;;;7.07;4.30;;;;;;;;;;5013921;28;20490;-63
2021/11/05 01:48:06;;;;;;;5.47;4.33;;;;;;;;;;5012980;28;20455;-62
2021/11/05 01:50:32;;;;;;;4.13;3.60;;;;;;;;;;5022540;28;20945;-63
2021/11/05 01:52:59;;;;;;;6.70;4.97;;;;;;;;;;5033427;28;20438;-63
2021/11/05 01:55:25;;;;;;;5.87;4.13;;;;;;;;;;5026623;28;20424;-60
2021/11/05 01:57:51;;;;;;;4.53;4.03;;;;;;;;;;5022052;28;20439;-62
2021/11/05 02:00:19;;;;;;;5.20;4.13;;;;;;;;;;5033335;28;20461;-62
2021/11/05 02:02:46;;;;;;;5.10;4.20;;;;;;;;;;5033282;28;20429;-61
2021/11/05 02:05:12;;;;;;;4.60;4.10;;;;;;;;;;5033054;28;20418;-61
2021/11/05 02:07:39;;;;;;;4.73;4.07;;;;;;;;;;5032987;28;20427;-62
2021/11/05 02:10:07;;;;;;;4.73;4.23;;;;;;;;;;5033407;28;20395;-61
2021/11/05 02:12:33;;;;;;;5.90;5.30;;;;;;;;;;5033072;28;20548;-62
2021/11/05 02:15:00;;;;;;;6.83;4.63;;;;;;;;;;5033072;28;20438;-62
2021/11/05 02:17:26;;;;;;;4.27;3.63;;;;;;;;;;5031932;28;20427;-62
2021/11/05 02:19:53;;;;;;;4.13;3.73;;;;;;;;;;5024045;28;20427;-62
2021/11/05 02:22:20;;;;;;;4.33;3.93;;;;;;;;;;5016410;28;20820;-62
2021/11/05 02:24:46;;;;;;;5.40;4.17;;;;;;;;;;5013748;28;20435;-62
2021/11/05 02:27:12;;;;;;;6.13;4.50;;;;;;;;;;5031581;28;20421;-62
2021/11/05 02:29:38;;;;;;;4.47;3.90;;;;;;;;;;5033157;28;20766;-61
2021/11/05 02:32:05;;;;;;;5.30;3.90;;;;;;;;;;5033417;28;20854;-61
2021/11/05 02:34:32;;;;;;;5.43;4.07;;;;;;;;;;5033250;28;20398;-61
2021/11/05 02:36:58;;;;;;;5.57;4.27;;;;;;;;;;5033041;28;20415;-62
2021/11/05 02:39:25;;;;;;;5.30;4.17;;;;;;;;;;5032751;28;20457;-61
2021/11/05 02:41:52;;;;;;;5.63;4.20;;;;;;;;;;5032994;28;20562;-62
2021/11/05 02:44:19;;;;;;;6.10;3.83;;;;;;;;;;5031514;28;20422;-62
2021/11/05 02:46:45;;;;;;;4.47;3.77;;;;;;;;;;5032572;28;20414;-62
2021/11/05 02:49:14;;;;;;;6.20;4.27;;;;;;;;;;5033360;28;20750;-62
2021/11/05 02:51:41;;;;;;;6.47;3.70;;;;;;;;;;5032943;28;20426;-62
2021/11/05 02:54:07;;;;;;;5.20;4.37;;;;;;;;;;5032935;28;20398;-62
2021/11/05 02:56:34;;;;;;;4.30;3.90;;;;;;;;;;5032899;28;20503;-62
2021/11/05 02:59:00;;;;;;;5.70;4.93;;;;;;;;;;5032263;28;20585;-60
2021/11/05 03:01:27;;;;;;;5.20;4.70;;;;;;;;;;5036743;28;20458;-62
2021/11/05 03:03:53;;;;;;;5.40;4.63;;;;;;;;;;5036611;28;20418;-62
2021/11/05 03:06:19;;;;;;;5.27;4.77;;;;;;;;;;5036831;28;20402;-62
2021/11/05 03:08:45;;;;;;;4.07;3.63;;;;;;;;;;5035836;28;20418;-61
2021/11/05 03:11:14;;;;;;;5.60;4.30;;;;;;;;;;5036673;28;20771;-61
2021/11/05 03:13:41;;;;;;;5.37;4.40;;;;;;;;;;5036810;28;20379;-62
2021/11/05 03:16:08;;;;;;;6.00;4.83;;;;;;;;;;5036611;28;20403;-61
2021/11/05 03:18:38;;;;;;;7.57;5.53;;;;;;;;;;5036147;28;20418;-62
2021/11/05 03:21:04;;;;;;;8.93;5.33;;;;;;;;;;5031854;28;20458;-62
2021/11/05 03:23:31;;;;;;;7.50;4.97;;;;;;;;;;5016614;28;20404;-62
2021/11/05 03:25:57;;;;;;;8.37;4.90;;;;;;;;;;5016875;28;20403;-63
2021/11/05 03:28:23;;;;;;;6.47;5.13;;;;;;;;;;5016672;28;20400;-62
2021/11/05 03:30:49;;;;;;;8.37;5.23;;;;;;;;;;5035788;28;20422;-62
2021/11/05 03:33:15;;;;;;;6.73;5.00;;;;;;;;;;5036181;28;20442;-62
2021/11/05 03:35:41;;;;;;;5.23;4.40;;;;;;;;;;5036281;28;20425;-61
2021/11/05 03:38:07;;;;;;;5.20;4.40;;;;;;;;;;5036230;28;20422;-62
2021/11/05 03:40:34;;;;;;;4.57;4.00;;;;;;;;;;5035769;28;20955;-64
2021/11/05 03:43:00;;;;;;;5.23;4.20;;;;;;;;;;5036468;28;20480;-62
2021/11/05 03:45:26;;;;;;;5.23;4.73;;;;;;;;;;5035848;28;20449;-62
2021/11/05 03:47:52;;;;;;;5.27;4.20;;;;;;;;;;5035990;28;20924;-62
2021/11/05 03:50:18;;;;;;;5.20;4.70;;;;;;;;;;5035848;28;20473;-62
2021/11/05 03:52:45;;;;;;;5.10;4.20;;;;;;;;;;5034671;28;20525;-61
2021/11/05 03:55:11;;;;;;;5.00;4.40;;;;;;;;;;5035861;28;20421;-61
2021/11/05 03:57:37;;;;;;;5.00;4.50;;;;;;;;;;5028240;28;20423;-61
2021/11/05 04:00:05;;;;;;;5.70;4.50;;;;;;;;;;5017675;28;21011;-61
2021/11/05 04:02:31;;;;;;;5.97;4.10;;;;;;;;;;5026701;28;20431;-61
2021/11/05 04:04:58;;;;;;;6.43;5.03;;;;;;;;;;5028145;28;20439;-59
2021/11/05 04:07:24;;;;;;;5.80;3.70;;;;;;;;;;5023925;28;20423;-60
2021/11/05 04:09:50;;;;;;;4.30;3.90;;;;;;;;;;5019318;28;20414;-62
2021/11/05 04:12:17;;;;;;;6.67;4.60;;;;;;;;;;5034252;28;20451;-62
2021/11/05 04:14:43;;;;;;;5.37;4.70;;;;;;;;;;5035433;28;20899;-63
2021/11/05 04:17:09;;;;;;;4.73;4.20;;;;;;;;;;5035155;28;20433;-62
2021/11/05 04:19:35;;;;;;;5.10;4.60;;;;;;;;;;5035519;28;20860;-62
2021/11/05 04:22:01;;;;;;;6.90;3.90;;;;;;;;;;5035285;28;20465;-61
2021/11/05 04:24:27;;;;;;;4.33;3.40;;;;;;;;;;5035251;28;20399;-61
2021/11/05 04:26:53;;;;;;;4.83;4.30;;;;;;;;;;5035408;28;20418;-63
2021/11/05 04:29:20;;;;;;;4.43;3.93;;;;;;;;;;5027507;28;20419;-62
2021/11/05 04:31:46;;;;;;;3.57;3.10;;;;;;;;;;5015247;28;20558;-62
2021/11/05 04:34:12;;;;;;;4.77;3.87;;;;;;;;;;5015438;28;20402;-62
2021/11/05 04:36:39;;;;;;;4.20;3.80;;;;;;;;;;5014272;28;20442;-61
2021/11/05 04:39:05;;;;;;;5.10;4.40;;;;;;;;;;5025911;28;20923;-61
2021/11/05 04:41:32;;;;;;;4.00;3.60;;;;;;;;;;5035359;28;21013;-64
2021/11/05 04:43:59;;;;;;;5.30;4.40;;;;;;;;;;5033682;28;20430;-61
2021/11/05 04:46:25;;;;;;;8.50;5.50;;;;;;;;;;5034864;28;20840;-61
2021/11/05 04:48:51;;;;;;;4.60;3.97;;;;;;;;;;5034622;28;20790;-61
2021/11/05 04:51:17;;;;;;;5.80;4.40;;;;;;;;;;5034713;28;20453;-61
2021/11/05 04:53:43;;;;;;;6.60;4.23;;;;;;;;;;5034734;28;20403;-61
2021/11/05 04:56:09;;;;;;;5.63;4.43;;;;;;;;;;5033370;28;20419;-60
2021/11/05 04:58:36;;;;;;;6.43;4.87;;;;;;;;;;5019148;28;20497;-62
2021/11/05 05:01:02;;;;;;;5.57;4.37;;;;;;;;;;5031391;28;20553;-63
2021/11/05 05:03:28;;;;;;;5.20;4.10;;;;;;;;;;5034722;28;20619;-62
2021/11/05 05:05:54;;;;;;;6.50;5.10;;;;;;;;;;5034122;28;20402;-64
2021/11/05 05:08:20;;;;;;;7.60;5.17;;;;;;;;;;5034705;28;20395;-62
2021/11/05 05:10:47;;;;;;;6.43;5.47;;;;;;;;;;5034005;28;20778;-62
2021/11/05 05:13:13;;;;;;;8.27;6.00;;;;;;;;;;5034088;28;20442;-62
2021/11/05 05:15:39;;;;;;;7.73;5.90;;;;;;;;;;5034188;28;20414;-61
2021/11/05 05:18:05;;;;;;;7.13;4.80;;;;;;;;;;5033987;28;20399;-62
2021/11/05 05:20:31;;;;;;;7.73;5.47;;;;;;;;;;5033418;28;20983;-62
2021/11/05 05:22:57;;;;;;;9.37;4.77;;;;;;;;;;5033170;28;20501;-62
2021/11/05 05:25:23;;;;;;;5.00;4.50;;;;;;;;;;5034275;28;20812;-62
2021/11/05 05:27:50;;;;;;;4.97;4.47;;;;;;;;;;5034275;28;20399;-62
2021/11/05 05:30:18;;;;;;;6.13;4.37;;;;;;;;;;5034240;28;20510;-62
2021/11/05 05:32:45;;;;;;;5.90;4.00;;;;;;;;;;5034060;28;20449;-62
2021/11/05 05:35:11;;;;;;;5.63;3.90;;;;;;;;;;5033917;28;20419;-61
2021/11/05 05:37:37;;;;;;;5.10;4.10;;;;;;;;;;5034088;28;20452;-62
2021/11/05 05:40:04;;;;;;;5.37;4.50;;;;;;;;;;5028524;28;20455;-62
2021/11/05 05:42:31;;;;;;;5.73;3.90;;;;;;;;;;5025846;28;20430;-61
2021/11/05 05:44:57;;;;;;;4.00;3.30;;;;;;;;;;5033479;28;20463;-60
2021/11/05 05:47:23;;;;;;;5.80;3.70;;;;;;;;;;5033786;28;20406;-63
2021/11/05 05:49:51;;;;;;;4.70;3.83;;;;;;;;;;5033378;28;20449;-62
2021/11/05 05:52:17;;;;;;;3.93;3.53;;;;;;;;;;5033131;28;20922;-62
2021/11/05 05:54:43;;;;;;;9.07;3.43;;;;;;;;;;5034633;28;20490;-63
2021/11/05 05:57:09;;;;;;;4.60;3.67;;;;;;;;;;5035988;28;20411;-62
2021/11/05 05:59:36;;;;;;;4.80;4.03;;;;;;;;;;5035919;28;20894;-62
2021/11/05 06:02:02;;;;;;;4.30;3.40;;;;;;;;;;5036242;28;21020;-63
2021/11/05 06:04:28;;;;;;;4.50;3.80;;;;;;;;;;5034301;28;20465;-62
2021/11/05 06:06:55;;;;;;;4.90;3.70;;;;;;;;;;5035765;28;20464;-62
2021/11/05 06:09:21;;;;;;;4.57;3.73;;;;;;;;;;5036071;28;20419;-63
2021/11/05 06:11:47;;;;;;;3.70;3.40;;;;;;;;;;5035678;28;20450;-63
2021/11/05 06:14:13;;;;;;;5.57;3.93;;;;;;;;;;5035565;28;20410;-62
2021/11/05 06:16:40;;;;;;;5.53;3.83;;;;;;;;;;5035730;28;20402;-63
2021/11/05 06:19:06;;;;;;;4.30;3.63;;;;;;;;;;5035574;28;20403;-62
2021/11/05 06:21:32;;;;;;;5.30;3.90;;;;;;;;;;5034831;28;20472;-62
2021/11/05 06:23:58;;;;;;;6.00;4.37;;;;;;;;;;5034910;28;20845;-62
2021/11/05 06:26:24;;;;;;;4.80;4.13;;;;;;;;;;5035659;28;20403;-62
2021/11/05 06:28:50;;;;;;;5.70;4.33;;;;;;;;;;5035608;28;20398;-63
2021/11/05 06:31:17;;;;;;;8.67;5.70;;;;;;;;;;5034382;28;20415;-62
2021/11/05 06:33:43;;;;;;;5.77;4.97;;;;;;;;;;5034214;28;20596;-64
2021/11/05 06:36:09;;;;;;;8.67;5.80;;;;;;;;;;5035972;28;20462;-65
2021/11/05 06:38:35;;;;;;;6.07;4.57;;;;;;;;;;5032991;28;20453;-64
2021/11/05 06:41:01;;;;;;;8.27;5.53;;;;;;;;;;5031335;28;20462;-63
2021/11/05 06:43:27;;;;;;;6.83;4.90;;;;;;;;;;5033338;28;20402;-65
2021/11/05 06:45:53;;;;;;;9.83;5.00;;;;;;;;;;5032592;28;20492;-65
2021/11/05 06:48:20;;;;;;;7.80;6.47;;;;;;;;;;5033468;28;20473;-64
2021/11/05 06:50:46;;;;;;;7.30;5.70;;;;;;;;;;5034012;28;20422;-65
2021/11/05 06:53:12;;;;;;;7.50;6.27;;;;;;;;;;5030084;28;20437;-64
2021/11/05 06:55:39;;;;;;;6.20;5.40;;;;;;;;;;5031567;28;20410;-63
2021/11/05 06:58:05;;;;;;;7.57;5.50;;;;;;;;;;5031342;28;20428;-64
2021/11/05 07:00:32;;;;;;;8.47;4.80;;;;;;;;;;5032848;28;20803;-64
2021/11/05 07:03:02;;;;;;;9.57;5.40;;;;;;;;;;5033237;28;20482;-62
2021/11/05 07:05:28;;;;;;;8.00;6.30;;;;;;;;;;5034961;28;20414;-63
2021/11/05 07:07:54;;;;;;;6.80;4.57;;;;;;;;;;5033598;28;20843;-62
2021/11/05 07:10:21;;;;;;;7.10;4.70;;;;;;;;;;5033798;28;20959;-63
2021/11/05 07:12:50;;;;;;;7.00;5.23;;;;;;;;;;5033748;28;20454;-63
2021/11/05 07:15:17;;;;;;;9.10;5.00;;;;;;;;;;5034029;28;20414;-63
2021/11/05 07:17:43;;;;;;;5.93;5.00;;;;;;;;;;5034137;28;20440;-62
2021/11/05 07:20:09;;;;;;;7.10;5.77;;;;;;;;;;5034375;28;20513;-64
2021/11/05 07:22:39;;;;;;;5.87;4.77;;;;;;;;;;5033867;28;20466;-64
2021/11/05 07:25:06;;;;;;;8.53;5.00;;;;;;;;;;5034051;28;20490;-63
2021/11/05 07:27:32;;;;;;;12.40;6.13;;;;;;;;;;5033720;28;20407;-63
2021/11/05 07:29:58;;;;;;;8.30;5.93;;;;;;;;;;5033755;28;20403;-63
2021/11/05 07:32:24;;;;;;;8.53;6.23;;;;;;;;;;5034662;28;20422;-63
2021/11/05 07:34:54;;;;;;;8.77;5.50;;;;;;;;;;5034281;28;20406;-63
2021/11/05 07:37:20;;;;;;;7.00;5.60;;;;;;;;;;5034455;28;20407;-63
2021/11/05 07:39:47;;;;;;;5.60;5.03;;;;;;;;;;5033702;28;20442;-63
2021/11/05 07:42:13;;;;;;;10.43;4.53;;;;;;;;;;5034354;28;20443;-63
2021/11/05 07:44:39;;;;;;;6.10;4.60;;;;;;;;;;5034126;28;20414;-63
2021/11/05 07:47:06;;;;;;;6.87;4.70;;;;;;;;;;5036075;28;20927;-63
2021/11/05 07:49:32;;;;;;;6.03;4.60;;;;;;;;;;5036308;28;20860;-63
2021/11/05 07:51:58;;;;;;;5.87;4.90;;;;;;;;;;5037927;28;20980;-63
2021/11/05 07:54:25;;;;;;;5.77;4.53;;;;;;;;;;5029264;28;20470;-63
2021/11/05 07:56:51;;;;;;;5.50;3.50;;;;;;;;;;5023309;28;21000;-63
2021/11/05 07:59:17;;;;;;;5.57;4.40;;;;;;;;;;5030139;28;20430;-63
2021/11/05 08:01:43;;;;;;;7.33;4.83;;;;;;;;;;5034054;28;20489;-63
2021/11/05 08:04:09;;;;;;;6.53;5.10;;;;;;;;;;5032706;28;20430;-63
2021/11/05 08:06:35;;;;;;;6.20;4.70;;;;;;;;;;5035331;28;20506;-63
2021/11/05 08:09:02;;;;;;;6.93;4.80;;;;;;;;;;5025462;28;20416;-63
2021/11/05 08:11:29;;;;;;;8.80;4.70;;;;;;;;;;5024815;28;20509;-63
2021/11/05 08:13:56;;;;;;;6.87;4.70;;;;;;;;;;5027886;28;20447;-63
2021/11/05 08:16:22;;;;;;;7.10;5.40;;;;;;;;;;5035957;28;20462;-64
2021/11/05 08:18:48;;;;;;;6.00;4.37;;;;;;;;;;5036323;28;20442;-62
2021/11/05 08:21:14;;;;;;;6.07;4.87;;;;;;;;;;5039855;28;20458;-63
2021/11/05 08:23:41;;;;;;;5.10;4.47;;;;;;;;;;5034123;28;20419;-62
2021/11/05 08:26:07;;;;;;;6.87;4.20;;;;;;;;;;5033135;28;20422;-62
2021/11/05 08:28:34;;;;;;;5.63;4.47;;;;;;;;;;5033367;28;20415;-62
2021/11/05 08:31:00;;;;;;;8.13;5.23;;;;;;;;;;5033540;28;20449;-62
2021/11/05 08:33:26;;;;;;;6.80;5.80;;;;;;;;;;5029927;28;20426;-61
2021/11/05 08:35:53;;;;;;;5.03;4.33;;;;;;;;;;5019155;28;20411;-62
2021/11/05 08:38:20;;;;;;;5.53;4.77;;;;;;;;;;5040841;28;20431;-62
2021/11/05 08:40:48;;;;;;;5.17;4.60;;;;;;;;;;5030654;28;20469;-64
2021/11/05 08:43:16;;;;;;;7.03;5.10;;;;;;;;;;5028638;28;20443;-64
2021/11/05 08:45:42;;;;;;;10.90;5.00;;;;;;;;;;5028681;28;20411;-63
2021/11/05 08:48:08;;;;;;;6.73;5.13;;;;;;;;;;5027798;28;20420;-63
2021/11/05 08:50:35;;;;;;;9.50;5.70;;;;;;;;;;5032005;28;20434;-61
2021/11/05 08:53:02;;;;;;;8.67;5.20;;;;;;;;;;5032434;28;20464;-63
2021/11/05 08:55:29;;;;;;;8.27;4.40;;;;;;;;;;5033057;28;20441;-63
2021/11/05 08:57:55;;;;;;;6.20;4.07;;;;;;;;;;5033408;28;20450;-63
2021/11/05 09:00:23;;;;;;;6.63;4.40;;;;;;;;;;5032840;28;20950;-63
2021/11/05 09:02:50;;;;;;;5.50;4.70;;;;;;;;;;5032979;28;20441;-63
2021/11/05 09:05:18;;;;;;;8.50;3.87;;;;;;;;;;5020578;28;20414;-63
2021/11/05 09:07:44;;;;;;;6.43;4.07;;;;;;;;;;5033313;28;20411;-63
2021/11/05 09:10:11;;;;;;;6.10;3.90;;;;;;;;;;5032902;28;20430;-63
2021/11/05 09:12:38;;;;;;;4.00;3.53;;;;;;;;;;5033797;28;20545;-63
2021/11/05 09:15:05;;;;;;;3.60;3.20;;;;;;;;;;5022046;28;20415;-62
2021/11/05 09:17:31;;;;;;;6.23;3.60;;;;;;;;;;5028617;28;20426;-63
2021/11/05 09:19:57;;;;;;;7.13;4.10;;;;;;;;;;5028939;28;20502;-63
2021/11/05 09:22:24;;;;;;;4.20;3.80;;;;;;;;;;5031925;28;20441;-63
2021/11/05 09:24:50;;;;;;;6.60;4.90;;;;;;;;;;5030856;28;20457;-63
2021/11/05 09:27:17;;;;;;;4.07;3.67;;;;;;;;;;5032077;28;20410;-62
2021/11/05 09:29:43;;;;;;;6.73;4.30;;;;;;;;;;5016954;28;20422;-62
2021/11/05 09:32:09;;;;;;;5.17;4.47;;;;;;;;;;5027655;28;20470;-62
2021/11/05 09:34:35;;;;;;;7.47;4.40;;;;;;;;;;5029698;28;20767;-62
2021/11/05 09:37:03;;;;;;;7.10;4.03;;;;;;;;;;5033082;28;20420;-63
2021/11/05 09:39:30;;;;;;;5.77;4.83;;;;;;;;;;5020236;28;20877;-63
2021/11/05 09:41:57;;;;;;;5.20;4.40;;;;;;;;;;5030261;28;20466;-63
2021/11/05 09:44:23;;;;;;;5.10;3.70;;;;;;;;;;5025334;28;20430;-63
2021/11/05 09:46:49;;;;;;;5.87;5.00;;;;;;;;;;5031400;28;20511;-63
2021/11/05 09:49:15;;;;;;;5.70;5.03;;;;;;;;;;5031159;28;20423;-63
2021/11/05 09:51:42;;;;;;;5.30;4.33;;;;;;;;;;5030989;28;20441;-63
2021/11/05 09:54:10;;;;;;;5.73;4.67;;;;;;;;;;5025551;28;20415;-64
2021/11/05 09:56:36;;;;;;;6.53;4.43;;;;;;;;;;5031721;28;20419;-62
2021/11/05 09:59:02;;;;;;;4.13;3.70;;;;;;;;;;5031883;28;20430;-63
2021/11/05 10:01:28;;;;;;;4.47;4.00;;;;;;;;;;5032335;28;20450;-63
2021/11/05 10:03:54;;;;;;;5.43;4.43;;;;;;;;;;5029981;28;20750;-63
2021/11/05 10:06:23;;;;;;;6.30;4.60;;;;;;;;;;5032310;28;21114;-63
2021/11/05 10:08:53;;;;;;;4.70;3.80;;;;;;;;;;5032347;28;20472;-63
2021/11/05 10:11:37;;;;;;;5.33;4.03;;;;;;;;;;5033323;28;20425;-63
2021/11/05 10:14:03;;;;;;;6.67;3.87;;;;;;;;;;5032644;28;20419;-63
2021/11/05 10:16:30;;;;;;;5.30;3.90;;;;;;;;;;5031749;28;20513;-63
2021/11/05 10:18:56;;;;;;;4.40;3.53;;;;;;;;;;5031698;28;20786;-63
2021/11/05 10:21:23;;;;;;;4.30;3.37;;;;;;;;;;5032760;28;20819;-63
2021/11/05 10:23:49;;;;;;;4.73;3.27;;;;;;;;;;5033431;28;20415;-64
2021/11/05 10:26:22;;;;;;;4.27;2.93;;;;;;;;;;5031695;28;20402;-62
2021/11/05 10:28:48;;;;;;;4.53;3.47;;;;;;;;;;5033083;28;20407;-62
2021/11/05 10:31:16;;;;;;;4.67;3.23;;;;;;;;;;5032599;28;20411;-63
2021/11/05 10:33:43;;;;;;;4.10;3.60;;;;;;;;;;5032665;28;20508;-63
2021/11/05 10:36:13;;;;;;;3.90;3.47;;;;;;;;;;5032612;28;20847;-62
2021/11/05 10:38:44;;;;;;;4.50;3.33;;;;;;;;;;5032659;28;20449;-62
2021/11/05 10:41:11;;;;;;;6.10;3.53;;;;;;;;;;5022465;28;20501;-63
2021/11/05 10:43:39;;;;;;;4.40;3.87;;;;;;;;;;5027775;28;20415;-62
2021/11/05 10:46:06;;;;;;;4.87;3.90;;;;;;;;;;5025582;28;20422;-63
2021/11/05 10:48:36;;;;;;;3.77;2.90;;;;;;;;;;5033515;28;20535;-63
2021/11/05 10:51:04;;;;;;;3.77;3.10;;;;;;;;;;5032450;28;20407;-62
2021/11/05 10:53:34;;;;;;;5.37;3.40;;;;;;;;;;5033028;28;20415;-64
2021/11/05 10:56:02;;;;;;;4.10;2.63;;;;;;;;;;5031864;28;20717;-61
2021/11/05 10:58:30;;;;;;;4.07;2.63;;;;;;;;;;5032257;28;20426;-62
2021/11/05 11:01:00;;;;;;;4.80;3.43;;;;;;;;;;5031859;28;20456;-62
2021/11/05 11:03:31;;;;;;;3.90;3.03;;;;;;;;;;5030760;28;20441;-61
2021/11/05 11:05:59;;;;;;;4.73;2.93;;;;;;;;;;5031640;28;20407;-62
2021/11/05 11:08:34;;;;;;;4.60;3.13;;;;;;;;;;5032137;28;20418;-62
2021/11/05 11:11:20;;;;;;;3.10;2.70;;;;;;;;;;5032099;28;20429;-63
2021/11/05 11:13:47;;;;;;;3.73;3.33;;;;;;;;;;5032289;28;20509;-62
2021/11/05 11:16:18;;;;;;;5.20;3.03;;;;;;;;;;5032002;28;20791;-62
2021/11/05 11:18:56;;;;;;;4.43;3.37;;;;;;;;;;5026713;28;20441;-62
2021/11/05 11:21:24;;;;;;;4.10;3.40;;;;;;;;;;5032819;28;20534;-64
2021/11/05 11:23:50;;;;;;;3.43;2.57;;;;;;;;;;5034606;28;20442;-62
2021/11/05 11:26:16;;;;;;;3.73;3.00;;;;;;;;;;5034977;28;20419;-63
2021/11/05 11:28:43;;;;;;;3.80;3.10;;;;;;;;;;5032186;28;20407;-62
2021/11/05 11:31:12;;;;;;;5.00;3.43;;;;;;;;;;5035656;28;20440;-62
2021/11/05 11:33:38;;;;;;;3.40;3.00;;;;;;;;;;5034593;28;20903;-63
2021/11/05 11:36:04;;;;;;;3.70;3.03;;;;;;;;;;5035279;28;20865;-63
2021/11/05 11:38:31;;;;;;;3.57;3.00;;;;;;;;;;5035427;28;20502;-63
2021/11/05 11:40:57;;;;;;;4.00;2.87;;;;;;;;;;5035745;28;20460;-63
2021/11/05 11:43:25;;;;;;;4.30;3.13;;;;;;;;;;5032484;28;20435;-63
2021/11/05 11:45:54;;;;;;;4.37;2.80;;;;;;;;;;5033219;28;20815;-63
2021/11/05 11:48:38;;;;;;;3.80;3.00;;;;;;;;;;5033954;28;20963;-63
2021/11/05 11:51:19;;;;;;;3.63;3.27;;;;;;;;;;5034511;28;20972;-63
2021/11/05 11:53:46;;;;;;;3.07;2.40;;;;;;;;;;5035891;28;20552;-63
2021/11/05 11:56:22;;;;;;;3.20;2.70;;;;;;;;;;5036493;28;20414;-63
2021/11/05 11:58:55;;;;;;;4.27;3.37;;;;;;;;;;5034737;28;20907;-63
2021/11/05 12:01:22;;;;;;;4.10;2.83;;;;;;;;;;5034805;28;20961;-64
2021/11/05 12:03:54;;;;;;;3.23;2.60;;;;;;;;;;5021007;28;20427;-63
2021/11/05 12:06:21;;;;;;;3.30;2.80;;;;;;;;;;5035138;28;20505;-63
2021/11/05 12:08:47;;;;;;;3.87;2.43;;;;;;;;;;5035316;28;20448;-63
2021/11/05 12:11:15;;;;;;;2.97;2.20;;;;;;;;;;5028493;28;20483;-64
2021/11/05 12:13:42;;;;;;;2.60;2.40;;;;;;;;;;5024592;28;20949;-64
2021/11/05 12:16:23;;;;;;;3.37;2.37;;;;;;;;;;5034898;28;20412;-64
2021/11/05 12:18:59;;;;;;;2.83;2.37;;;;;;;;;;5020377;28;20428;-62
2021/11/05 12:21:36;;;;;;;2.70;2.13;;;;;;;;;;5034457;28;20469;-64
2021/11/05 12:24:21;;;;;;;5.73;2.10;;;;;;;;;;5035101;28;20424;-63
2021/11/05 12:26:47;;;;;;;2.80;2.00;;;;;;;;;;5023615;28;20415;-62
2021/11/05 12:29:42;;;;;;;2.67;1.40;;;;;;;;;;5034230;28;20488;-62
2021/11/05 12:32:18;;;;;;;1.87;1.30;;;;;;;;;;5020695;28;20454;-64
2021/11/05 12:34:48;;;;;;;2.70;1.37;;;;;;;;;;5032597;28;20411;-62
2021/11/05 12:37:29;;;;;;;3.03;1.50;;;;;;;;;;5027157;28;20427;-62
2021/11/05 12:39:56;;;;;;;1.90;1.33;;;;;;;;;;5032262;28;20410;-64
2021/11/05 12:42:22;;;;;;;2.10;1.60;;;;;;;;;;5033719;28;20444;-63
2021/11/05 12:44:57;;;;;;;2.03;1.40;;;;;;;;;;5033222;28;20778;-64
2021/11/05 12:47:42;;;;;;;1.90;1.33;;;;;;;;;;5033168;28;21042;-63
2021/11/05 12:50:08;;;;;;;1.80;1.27;;;;;;;;;;5034856;28;20410;-63
2021/11/05 12:52:34;;;;;;;5.00;1.50;;;;;;;;;;5033945;28;20430;-63
2021/11/05 12:55:01;;;;;;;3.47;2.13;;;;;;;;;;5033644;28;20423;-63
2021/11/05 12:57:27;;;;;;;3.40;1.80;;;;;;;;;;5034855;28;20398;-63
2021/11/05 12:59:53;;;;;;;2.80;1.77;;;;;;;;;;5034149;28;20410;-61
2021/11/05 13:02:20;;;;;;;1.97;1.40;;;;;;;;;;5016289;28;20469;-63
2021/11/05 13:04:50;;;;;;;2.30;1.70;;;;;;;;;;5034334;28;20419;-63
2021/11/05 13:07:17;;;;;;;2.23;1.40;;;;;;;;;;5034691;28;20414;-63
2021/11/05 13:09:50;;;;;;;4.07;1.70;;;;;;;;;;5033848;28;20895;-63
2021/11/05 13:12:17;;;;;;;2.20;1.30;;;;;;;;;;5034413;28;20549;-63
2021/11/05 13:14:43;;;;;;;1.80;1.10;;;;;;;;;;5034242;28;20471;-63
2021/11/05 13:17:21;;;;;;;2.40;1.37;;;;;;;;;;5031114;28;20423;-63
2021/11/05 13:19:58;;;;;;;5.30;1.40;;;;;;;;;;5026359;28;20415;-64
2021/11/05 13:22:26;;;;;;;3.00;1.40;;;;;;;;;;5034334;28;20450;-63
2021/11/05 13:24:52;;;;;;;2.60;1.67;;;;;;;;;;5034454;28;20510;-64
2021/11/05 13:27:18;;;;;;;5.13;1.70;;;;;;;;;;5029288;28;20434;-63
2021/11/05 13:29:47;;;;;;;2.97;1.47;;;;;;;;;;5031809;28;20423;-64
2021/11/05 13:32:18;;;;;;;2.47;1.40;;;;;;;;;;5031128;28;20568;-63
2021/11/05 13:34:44;;;;;;;2.27;1.47;;;;;;;;;;5033114;28;20414;-63
2021/11/05 13:37:11;;;;;;;1.80;1.30;;;;;;;;;;5031421;28;20418;-63
2021/11/05 13:39:37;;;;;;;1.80;1.40;;;;;;;;;;5033494;28;20759;-63
2021/11/05 13:42:14;;;;;;;3.47;1.80;;;;;;;;;;5034175;28;20470;-63
2021/11/05 13:44:40;;;;;;;2.07;1.43;;;;;;;;;;5030851;28;20505;-63
2021/11/05 13:47:13;;;;;;;2.57;1.47;;;;;;;;;;5027520;28;20426;-63
2021/11/05 13:49:39;;;;;;;6.20;2.00;;;;;;;;;;5033016;28;20410;-63
2021/11/05 13:52:09;;;;;;;2.47;1.60;;;;;;;;;;5033023;28;20481;-62
2021/11/05 13:54:45;;;;;;;3.33;2.70;;;;;;;;;;5033196;28;20433;-65
2021/11/05 13:57:15;;;;;;;3.13;2.23;;;;;;;;;;5032384;28;20457;-65
2021/11/05 13:59:41;;;;;;;3.67;2.50;;;;;;;;;;5012785;28;20415;-64
2021/11/05 14:02:07;;;;;;;3.40;2.23;;;;;;;;;;5013121;28;20455;-65
2021/11/05 14:04:34;;;;;;;2.50;1.77;;;;;;;;;;5021898;28;20482;-62
2021/11/05 14:07:00;;;;;;;2.70;2.30;;;;;;;;;;5031985;28;20415;-65
2021/11/05 14:09:31;;;;;;;5.10;2.60;;;;;;;;;;5031569;28;20415;-64
2021/11/05 14:12:00;;;;;;;2.80;2.37;;;;;;;;;;5032137;28;20469;-63
2021/11/05 14:14:28;;;;;;;2.90;2.60;;;;;;;;;;5031682;28;20962;-63
2021/11/05 14:16:55;;;;;;;2.10;1.73;;;;;;;;;;5037456;28;20509;-65
2021/11/05 14:19:22;;;;;;;5.57;3.70;;;;;;;;;;5030361;28;20426;-63
2021/11/05 14:22:06;;;;;;;3.00;2.20;;;;;;;;;;5031615;28;20834;-61
2021/11/05 14:24:36;;;;;;;3.20;2.73;;;;;;;;;;5025845;28;20436;-64
2021/11/05 14:27:22;;;;;;;3.30;2.57;;;;;;;;;;5029838;28;20933;-64
2021/11/05 14:29:49;;;;;;;3.13;2.80;;;;;;;;;;5030125;28;20775;-65
2021/11/05 14:32:19;;;;;;;3.60;2.97;;;;;;;;;;5031734;28;20442;-63
2021/11/05 14:34:53;;;;;;;2.80;2.30;;;;;;;;;;5031220;28;20402;-65
2021/11/05 14:37:19;;;;;;;3.80;2.67;;;;;;;;;;5024917;28;20423;-63
2021/11/05 14:39:51;;;;;;;3.30;2.60;;;;;;;;;;5030216;28;20465;-64
2021/11/05 14:42:18;;;;;;;3.13;2.53;;;;;;;;;;5030291;28;20458;-64
2021/11/05 14:44:44;;;;;;;3.00;2.40;;;;;;;;;;5031216;28;20418;-63